Terminal Aerodrome Forecast
Issued by NWS Sioux Falls, SD

Home | Current Version | Previous Version | Graphics & Text | Print | Product List | Glossary Off
Versions: 1 2 3 4 5 6 7 8 9 10 11 12 13 14 15

000
FTUS43 KFSD 231732 AAA
TAFSUX
TAF AMD
KSUX 231732Z 2318/2418 33014G18KT P6SM VCSH SCT025 BKN030
     FM232200 34014G21KT P6SM -SHRA BKN025
     FM240300 33010KT P6SM BKN025
     FM240800 33009KT P6SM BKN015 OVC040
     FM241400 34009KT P6SM SCT030=

USA.gov is the U.S. government's official web portal to all federal, state and local government web resources and services.